Time;durP1;ratioP1;P1;durP2;ratioP2;P2;SDS_P1;SDS_P2;PMS_P1;PMS_P2;Temp;Humidity;BMP_temperature;BMP_pressure;BME280_temperature;BME280_humidity;BME280_pressure;Samples;Min_cycle;Max_cycle;Signal;HPM_P1;HPM_P2
2021/12/02 00:02:19;;;;;;;8.40;5.82;;;5.80;99.90;;;;;;5052897;28;20223;-58
2021/12/02 00:04:48;;;;;;;9.82;7.22;;;5.70;99.90;;;;;;5053300;28;20238;-59
2021/12/02 00:07:17;;;;;;;8.93;6.95;;;5.70;99.90;;;;;;5052570;28;20216;-59
2021/12/02 00:09:47;;;;;;;8.30;7.45;;;5.70;99.90;;;;;;5053384;28;20192;-58
2021/12/02 00:12:15;;;;;;;8.93;6.10;;;5.80;99.90;;;;;;5052457;28;20224;-59
2021/12/02 00:14:46;;;;;;;8.35;5.90;;;5.80;99.90;;;;;;5052985;28;20216;-60
2021/12/02 00:17:20;;;;;;;9.40;5.85;;;5.80;99.90;;;;;;5052963;28;20213;-59
2021/12/02 00:22:46;;;;;;;6.50;5.80;;;5.80;99.90;;;;;;5052769;28;20702;-61
2021/12/02 00:25:14;;;;;;;6.90;5.93;;;5.80;99.90;;;;;;5052906;28;20229;-58
2021/12/02 00:27:46;;;;;;;8.25;7.47;;;5.80;99.90;;;;;;5053025;28;20220;-58
2021/12/02 00:30:16;;;;;;;6.45;5.95;;;5.80;99.90;;;;;;5071944;28;20684;-58
2021/12/02 00:32:45;;;;;;;9.25;6.25;;;5.80;99.90;;;;;;5072717;28;20227;-61
2021/12/02 00:35:16;;;;;;;8.85;6.35;;;5.80;99.90;;;;;;5072923;28;20523;-60
2021/12/02 00:37:45;;;;;;;12.75;6.60;;;5.90;99.90;;;;;;5061394;28;20274;-58
2021/12/02 00:40:13;;;;;;;9.07;5.47;;;5.90;99.90;;;;;;5051749;28;20216;-58
2021/12/02 00:42:43;;;;;;;8.50;6.05;;;5.80;99.90;;;;;;5067453;28;20555;-60
2021/12/02 00:45:11;;;;;;;8.93;5.70;;;5.80;99.90;;;;;;5052288;28;20629;-60
2021/12/02 00:47:41;;;;;;;6.53;5.10;;;5.90;99.90;;;;;;5052057;28;20228;-58
2021/12/02 00:50:10;;;;;;;6.38;5.78;;;5.80;99.90;;;;;;5052831;28;20197;-59
2021/12/02 00:52:41;;;;;;;6.45;5.75;;;5.80;99.90;;;;;;5052205;28;20611;-60
2021/12/02 00:55:09;;;;;;;6.00;5.00;;;5.80;99.90;;;;;;5052392;28;20231;-59
2021/12/02 00:57:40;;;;;;;8.30;4.47;;;5.80;99.90;;;;;;5051978;28;20215;-58
2021/12/02 01:00:10;;;;;;;8.48;5.18;;;5.80;99.90;;;;;;5052781;28;20573;-58
2021/12/02 01:02:40;;;;;;;9.20;5.30;;;5.80;99.90;;;;;;5051767;28;20705;-59
2021/12/02 01:05:09;;;;;;;6.05;5.15;;;5.90;99.90;;;;;;5052166;28;20185;-60
2021/12/02 01:07:38;;;;;;;6.22;5.30;;;5.80;99.90;;;;;;5071469;28;20284;-59
2021/12/02 01:10:07;;;;;;;5.10;4.65;;;5.80;99.90;;;;;;5071763;28;20684;-58
2021/12/02 01:12:35;;;;;;;5.20;4.57;;;5.80;99.90;;;;;;5067511;28;20621;-58
2021/12/02 01:15:04;;;;;;;11.60;5.53;;;5.80;99.90;;;;;;5051788;28;20204;-60
2021/12/02 01:17:33;;;;;;;8.40;5.10;;;5.80;99.90;;;;;;5051670;28;20224;-58
2021/12/02 01:20:03;;;;;;;8.35;6.00;;;5.80;99.90;;;;;;5051807;28;20188;-58
2021/12/02 01:22:34;;;;;;;4.93;4.53;;;5.70;99.90;;;;;;5051686;28;20216;-58
2021/12/02 01:25:03;;;;;;;7.13;4.75;;;5.70;99.90;;;;;;5050662;28;20195;-60
2021/12/02 01:27:32;;;;;;;5.53;4.95;;;5.70;99.90;;;;;;5051515;28;20235;-59
2021/12/02 01:30:01;;;;;;;5.25;4.50;;;5.70;99.90;;;;;;5069810;28;20184;-58
2021/12/02 01:32:33;;;;;;;7.65;4.80;;;5.70;99.90;;;;;;5071320;28;20227;-58
2021/12/02 01:35:05;;;;;;;7.38;4.88;;;5.70;99.90;;;;;;5071495;28;20234;-60
2021/12/02 01:37:35;;;;;;;5.75;4.22;;;5.80;99.90;;;;;;5058959;28;20242;-59
2021/12/02 01:40:04;;;;;;;5.32;3.90;;;5.80;99.90;;;;;;5064502;28;20188;-59
2021/12/02 01:42:39;;;;;;;4.80;4.40;;;5.80;99.90;;;;;;5068334;28;20223;-59
2021/12/02 01:45:11;;;;;;;7.40;5.95;;;5.80;99.90;;;;;;5051412;28;20681;-58
2021/12/02 01:47:48;;;;;;;5.38;4.88;;;5.70;99.90;;;;;;5051052;28;20240;-58
2021/12/02 01:50:20;;;;;;;6.20;5.43;;;5.70;99.90;;;;;;5052118;28;20223;-58
2021/12/02 01:52:54;;;;;;;11.52;7.55;;;5.70;99.90;;;;;;5049628;28;20220;-58
2021/12/02 01:55:23;;;;;;;8.35;6.40;;;5.60;99.90;;;;;;5051005;28;20745;-59
2021/12/02 01:57:59;;;;;;;10.60;7.20;;;5.50;99.90;;;;;;5051199;28;20282;-59
2021/12/02 02:00:32;;;;;;;9.82;8.20;;;5.60;99.90;;;;;;5051700;28;20271;-59
2021/12/02 02:03:02;;;;;;;7.40;6.00;;;5.60;99.90;;;;;;5050812;28;20222;-59
2021/12/02 02:05:33;;;;;;;6.20;5.55;;;5.50;99.90;;;;;;5051439;28;20292;-60
2021/12/02 02:08:06;;;;;;;10.65;5.88;;;5.50;99.90;;;;;;5050784;28;20575;-58
2021/12/02 02:10:38;;;;;;;6.97;5.70;;;5.50;99.90;;;;;;5051452;28;20193;-58
2021/12/02 02:13:08;;;;;;;12.63;6.22;;;5.50;99.90;;;;;;5050741;28;20208;-58
2021/12/02 02:15:37;;;;;;;7.57;5.18;;;5.40;99.90;;;;;;5051255;28;20208;-61
2021/12/02 02:18:10;;;;;;;7.93;4.95;;;5.40;99.90;;;;;;5050621;28;20235;-59
2021/12/02 02:20:41;;;;;;;3.45;3.13;;;5.30;99.90;;;;;;5051237;28;20203;-58
2021/12/02 02:23:12;;;;;;;4.13;2.70;;;5.40;99.90;;;;;;5050934;28;20230;-59
2021/12/02 02:25:42;;;;;;;7.28;2.78;;;5.40;99.90;;;;;;5051197;28;20585;-59
2021/12/02 02:28:10;;;;;;;9.43;2.95;;;5.40;99.90;;;;;;5054618;28;20224;-58
2021/12/02 02:30:39;;;;;;;7.63;2.90;;;5.30;99.90;;;;;;5071240;28;20291;-58
2021/12/02 02:33:07;;;;;;;8.15;3.22;;;5.30;99.90;;;;;;5070931;28;20268;-58
2021/12/02 02:35:35;;;;;;;4.38;2.25;;;5.30;99.90;;;;;;5070781;28;20214;-60
2021/12/02 02:38:05;;;;;;;6.93;2.90;;;5.30;99.90;;;;;;5060986;28;20223;-58
2021/12/02 02:40:34;;;;;;;4.22;1.80;;;5.30;99.90;;;;;;5051010;28;20203;-59
2021/12/02 02:43:08;;;;;;;8.57;2.55;;;5.10;99.90;;;;;;5056248;28;20563;-59
2021/12/02 02:45:37;;;;;;;6.63;1.90;;;5.10;99.90;;;;;;5049509;28;20216;-60
2021/12/02 02:48:06;;;;;;;4.50;1.98;;;5.10;99.90;;;;;;5050746;28;20224;-59
2021/12/02 02:50:53;;;;;;;4.43;2.03;;;5.10;99.90;;;;;;5050795;28;20211;-59
2021/12/02 02:53:41;;;;;;;7.50;2.20;;;5.10;99.90;;;;;;5050729;28;20235;-60
2021/12/02 02:56:12;;;;;;;5.13;2.30;;;5.10;99.90;;;;;;5050755;28;20212;-60
2021/12/02 02:58:57;;;;;;;6.40;2.13;;;5.10;99.90;;;;;;5050661;28;20637;-59
2021/12/02 03:01:41;;;;;;;6.93;1.55;;;5.10;99.90;;;;;;5049877;28;20271;-59
2021/12/02 03:04:22;;;;;;;2.10;1.52;;;5.10;99.90;;;;;;5050239;28;20216;-60
2021/12/02 03:06:54;;;;;;;8.10;1.58;;;5.10;99.90;;;;;;5052321;28;20584;-60
2021/12/02 03:09:45;;;;;;;5.97;1.75;;;5.20;99.90;;;;;;5055131;28;20212;-58
2021/12/02 03:12:18;;;;;;;6.05;1.73;;;5.20;99.90;;;;;;5054469;28;20220;-59
2021/12/02 03:16:37;;;;;;;10.82;2.38;;;5.10;99.90;;;;;;5052207;28;20764;-59
2021/12/02 03:17:43;;;;;;;2.47;1.67;;;5.10;99.90;;;;;;5070670;28;20223;-59
2021/12/02 03:20:12;;;;;;;6.25;2.13;;;4.90;99.90;;;;;;5074805;28;20577;-58
2021/12/02 03:22:40;;;;;;;5.43;1.48;;;4.90;99.90;;;;;;5073768;28;20229;-59
2021/12/02 03:25:10;;;;;;;2.00;1.55;;;5.00;99.90;;;;;;5074402;28;20719;-61
2021/12/02 03:27:39;;;;;;;5.65;2.67;;;5.00;99.90;;;;;;5055023;28;20220;-60
2021/12/02 03:30:08;;;;;;;6.25;2.38;;;5.00;99.90;;;;;;5054545;28;20231;-58
2021/12/02 03:32:37;;;;;;;5.35;2.13;;;4.90;99.90;;;;;;5054033;28;20224;-58
2021/12/02 03:35:07;;;;;;;4.35;3.13;;;5.00;99.90;;;;;;5054069;28;20590;-60
2021/12/02 03:37:36;;;;;;;5.05;2.28;;;5.00;99.90;;;;;;5053896;28;20641;-59
2021/12/02 03:40:05;;;;;;;5.72;2.83;;;5.00;99.90;;;;;;5054080;28;20195;-59
2021/12/02 03:42:35;;;;;;;4.78;2.97;;;4.90;99.90;;;;;;5053684;28;20690;-58
2021/12/02 03:45:04;;;;;;;4.28;2.72;;;5.00;99.90;;;;;;5053343;28;20192;-60
2021/12/02 03:47:32;;;;;;;5.05;2.83;;;5.00;99.90;;;;;;5053553;28;20787;-59
2021/12/02 03:50:00;;;;;;;6.13;2.90;;;5.00;99.90;;;;;;5054034;28;20193;-59
2021/12/02 03:52:28;;;;;;;5.10;3.28;;;5.10;99.90;;;;;;5053384;28;20766;-58
2021/12/02 03:54:57;;;;;;;7.30;4.22;;;5.00;99.90;;;;;;5052409;28;20223;-60
2021/12/02 03:57:28;;;;;;;5.07;3.90;;;5.00;99.90;;;;;;5053413;28;20216;-59
2021/12/02 03:59:58;;;;;;;4.93;3.60;;;5.10;99.90;;;;;;5072678;28;20241;-57
2021/12/02 04:02:26;;;;;;;6.68;3.40;;;5.10;99.90;;;;;;5073596;28;20219;-58
2021/12/02 04:04:55;;;;;;;10.05;4.13;;;5.10;99.90;;;;;;5074827;28;20538;-60
2021/12/02 04:07:25;;;;;;;4.75;3.15;;;5.00;99.90;;;;;;5071986;28;20216;-60
2021/12/02 04:09:55;;;;;;;6.95;3.80;;;5.00;99.90;;;;;;5074154;28;20194;-59
2021/12/02 04:12:29;;;;;;;4.50;3.60;;;5.00;99.90;;;;;;5071384;28;20715;-58
2021/12/02 04:15:02;;;;;;;5.35;2.92;;;5.00;99.90;;;;;;5053460;28;20192;-61
2021/12/02 04:17:41;;;;;;;7.40;3.38;;;5.00;99.90;;;;;;5052494;28;20231;-60
2021/12/02 04:20:13;;;;;;;7.65;3.35;;;4.90;99.90;;;;;;5053487;28;20592;-58
2021/12/02 04:22:42;;;;;;;5.15;3.05;;;4.90;99.90;;;;;;5052824;28;20277;-58
2021/12/02 04:25:11;;;;;;;4.40;2.65;;;4.90;99.90;;;;;;5053213;28;20250;-60
2021/12/02 04:27:39;;;;;;;3.55;2.60;;;4.90;99.90;;;;;;5050907;28;20223;-61
2021/12/02 04:30:12;;;;;;;3.83;2.30;;;5.00;99.90;;;;;;5052102;28;20597;-58
2021/12/02 04:32:41;;;;;;;4.00;2.22;;;5.00;99.90;;;;;;5052568;28;20220;-59
2021/12/02 04:35:11;;;;;;;4.47;2.65;;;5.00;99.90;;;;;;5054405;28;20226;-60
2021/12/02 04:37:39;;;;;;;4.70;2.30;;;5.00;99.90;;;;;;5070514;28;20224;-60
2021/12/02 04:40:10;;;;;;;3.47;2.33;;;5.00;99.90;;;;;;5071881;28;20214;-58
2021/12/02 04:42:38;;;;;;;4.65;2.45;;;4.90;99.90;;;;;;5068961;28;20249;-58
2021/12/02 04:45:09;;;;;;;5.22;3.10;;;4.90;99.90;;;;;;5052475;28;20262;-60
2021/12/02 04:47:37;;;;;;;7.68;2.60;;;4.80;99.90;;;;;;5052537;28;20274;-60
2021/12/02 04:50:06;;;;;;;5.88;2.15;;;4.80;99.90;;;;;;5052813;28;20586;-58
2021/12/02 04:52:34;;;;;;;12.10;2.75;;;4.90;99.90;;;;;;5052291;28;20216;-58
2021/12/02 04:55:03;;;;;;;7.07;3.65;;;4.80;99.90;;;;;;5052228;28;20193;-59
2021/12/02 04:57:31;;;;;;;4.28;2.70;;;4.80;99.90;;;;;;5051680;28;20709;-60
2021/12/02 04:59:59;;;;;;;9.10;3.08;;;4.90;99.90;;;;;;5052719;28;20250;-59
2021/12/02 05:02:29;;;;;;;8.05;3.13;;;4.80;99.90;;;;;;5052125;28;20244;-58
2021/12/02 05:04:57;;;;;;;7.40;3.72;;;4.70;99.90;;;;;;5052265;28;20287;-60
2021/12/02 05:07:25;;;;;;;6.10;4.20;;;4.70;99.90;;;;;;5051842;28;20216;-59
2021/12/02 05:09:53;;;;;;;3.92;3.42;;;4.60;99.90;;;;;;5052543;28;20200;-58
2021/12/02 05:12:22;;;;;;;5.90;3.97;;;4.70;99.90;;;;;;5051692;28;20731;-58
2021/12/02 05:14:50;;;;;;;8.32;4.55;;;4.70;99.90;;;;;;5051950;28;20224;-61
2021/12/02 05:17:18;;;;;;;7.18;4.55;;;4.70;99.90;;;;;;5051518;28;20228;-60
2021/12/02 05:19:47;;;;;;;5.15;3.83;;;4.70;99.90;;;;;;5052345;28;20197;-58
2021/12/02 05:22:16;;;;;;;12.00;5.00;;;4.80;99.90;;;;;;5051747;28;20224;-58
2021/12/02 05:24:44;;;;;;;10.85;4.65;;;4.80;99.90;;;;;;5051975;28;20211;-60
2021/12/02 05:27:14;;;;;;;10.20;5.10;;;4.80;99.90;;;;;;5051571;28;20216;-61
2021/12/02 05:29:42;;;;;;;6.35;4.82;;;4.70;99.90;;;;;;5068092;28;20257;-59
2021/12/02 05:32:10;;;;;;;7.97;5.40;;;4.70;99.90;;;;;;5071279;28;20183;-58
2021/12/02 05:34:38;;;;;;;9.70;5.80;;;4.70;99.90;;;;;;5072018;28;20192;-59
2021/12/02 05:37:07;;;;;;;8.38;4.80;;;4.70;99.90;;;;;;5069517;28;20204;-60
2021/12/02 05:39:35;;;;;;;5.43;4.40;;;4.80;99.90;;;;;;5052162;28;20199;-59
2021/12/02 05:42:04;;;;;;;7.20;5.13;;;4.70;99.90;;;;;;5051393;28;20196;-58
2021/12/02 05:44:32;;;;;;;4.80;3.85;;;4.70;99.90;;;;;;5050279;28;20193;-59
2021/12/02 05:47:00;;;;;;;8.60;4.60;;;4.70;99.90;;;;;;5051604;28;20189;-60
2021/12/02 05:49:29;;;;;;;4.70;3.80;;;4.70;99.90;;;;;;5051691;28;20239;-59
2021/12/02 05:51:57;;;;;;;5.65;4.28;;;4.70;99.90;;;;;;5051357;28;20617;-58
2021/12/02 05:54:27;;;;;;;7.53;3.67;;;4.70;99.90;;;;;;5051339;28;20284;-60
2021/12/02 05:56:55;;;;;;;6.15;3.65;;;4.70;99.90;;;;;;5051326;28;20189;-60
2021/12/02 05:59:24;;;;;;;7.05;4.47;;;4.70;99.90;;;;;;5051479;28;20267;-60
2021/12/02 06:01:52;;;;;;;6.50;5.00;;;4.80;99.90;;;;;;5050876;28;20685;-60
2021/12/02 06:04:21;;;;;;;7.05;3.35;;;4.80;99.90;;;;;;5051361;28;20193;-58
2021/12/02 06:06:50;;;;;;;6.32;3.00;;;4.70;99.90;;;;;;5051663;28;20238;-59
2021/12/02 06:09:19;;;;;;;5.97;2.95;;;4.60;99.90;;;;;;5051025;28;20227;-60
2021/12/02 06:11:48;;;;;;;4.03;2.78;;;4.50;99.90;;;;;;5051659;28;20196;-58
2021/12/02 06:14:17;;;;;;;7.93;3.97;;;4.60;99.90;;;;;;5050170;28;20224;-58
2021/12/02 06:16:45;;;;;;;8.55;4.00;;;4.40;99.90;;;;;;5051519;28;20254;-60
2021/12/02 06:19:13;;;;;;;8.63;4.28;;;4.40;99.90;;;;;;5050527;28;20729;-60
2021/12/02 06:21:41;;;;;;;7.90;4.25;;;4.50;99.90;;;;;;5051441;28;20231;-58
2021/12/02 06:24:09;;;;;;;7.10;4.20;;;4.40;99.90;;;;;;5050574;28;20227;-58
2021/12/02 06:26:37;;;;;;;8.95;5.15;;;4.50;99.90;;;;;;5051137;28;20192;-60
2021/12/02 06:29:07;;;;;;;9.52;5.53;;;4.50;99.90;;;;;;5051107;28;20693;-59
2021/12/02 06:31:35;;;;;;;7.35;5.75;;;4.50;99.90;;;;;;5051428;28;20242;-58
2021/12/02 06:34:03;;;;;;;6.25;4.90;;;4.50;99.90;;;;;;5050644;28;20228;-58
2021/12/02 06:36:31;;;;;;;10.27;6.00;;;4.60;99.90;;;;;;5051255;28;20204;-60
2021/12/02 06:39:00;;;;;;;7.97;5.13;;;4.60;99.90;;;;;;5067945;28;20220;-60
2021/12/02 06:41:28;;;;;;;13.15;5.63;;;4.50;99.90;;;;;;5073705;28;20249;-60
2021/12/02 06:43:56;;;;;;;13.18;5.47;;;4.30;99.90;;;;;;5067614;28;20585;-57
2021/12/02 06:46:28;;;;;;;12.65;5.38;;;4.30;99.90;;;;;;5074735;28;20200;-60
2021/12/02 06:48:57;;;;;;;3.88;3.33;;;4.30;99.90;;;;;;5074735;28;20227;-60
2021/12/02 06:51:27;;;;;;;7.28;3.50;;;4.30;99.90;;;;;;5073311;28;20549;-58
2021/12/02 06:53:55;;;;;;;9.23;3.10;;;4.30;99.90;;;;;;5054414;28;20223;-58
2021/12/02 06:56:43;;;;;;;5.60;3.40;;;4.20;99.90;;;;;;5067105;28;20215;-60
2021/12/02 06:59:11;;;;;;;5.20;3.95;;;4.10;99.90;;;;;;5058276;28;20682;-60
2021/12/02 07:01:41;;;;;;;7.65;3.78;;;4.20;99.90;;;;;;5054693;28;20242;-58
2021/12/02 07:04:09;;;;;;;11.38;4.60;;;4.20;99.90;;;;;;5053808;28;20228;-58
2021/12/02 07:06:38;;;;;;;10.63;4.90;;;4.30;99.90;;;;;;5054874;28;20181;-60
2021/12/02 07:09:07;;;;;;;6.78;5.28;;;4.30;99.90;;;;;;5053950;28;20216;-60
2021/12/02 07:11:35;;;;;;;9.82;5.40;;;4.10;99.90;;;;;;5053350;28;20608;-59
2021/12/02 07:14:06;;;;;;;5.53;4.70;;;4.20;99.90;;;;;;5053716;28;20228;-58
2021/12/02 07:16:36;;;;;;;8.65;5.50;;;4.20;99.90;;;;;;5054815;28;20193;-60
2021/12/02 07:19:07;;;;;;;11.60;5.88;;;4.20;99.90;;;;;;5053547;28;20236;-61
2021/12/02 07:21:37;;;;;;;10.75;6.68;;;4.30;99.90;;;;;;5054639;28;20246;-58
2021/12/02 07:24:06;;;;;;;10.82;5.15;;;4.30;99.90;;;;;;5052194;28;20775;-58
2021/12/02 07:26:35;;;;;;;10.23;5.68;;;4.30;99.90;;;;;;5054521;28;20280;-60
2021/12/02 07:29:03;;;;;;;6.00;5.40;;;4.20;99.90;;;;;;5052817;28;20216;-60
2021/12/02 07:31:32;;;;;;;12.98;6.53;;;4.20;99.90;;;;;;5054547;28;20188;-58
2021/12/02 07:34:02;;;;;;;9.32;5.38;;;4.20;99.90;;;;;;5072032;28;20225;-58
2021/12/02 07:36:32;;;;;;;5.05;4.25;;;4.10;99.90;;;;;;5067959;28;20184;-59
2021/12/02 07:39:02;;;;;;;5.40;4.70;;;4.10;99.90;;;;;;5053492;28;20224;-60
2021/12/02 07:41:30;;;;;;;6.57;5.10;;;4.00;99.90;;;;;;5054189;28;20621;-58
2021/12/02 07:43:58;;;;;;;6.85;5.60;;;3.90;99.90;;;;;;5053253;28;20224;-58
2021/12/02 07:46:32;;;;;;;7.50;4.68;;;3.90;99.90;;;;;;5054128;28;20585;-60
2021/12/02 07:49:00;;;;;;;6.55;4.43;;;3.90;99.90;;;;;;5053480;28;20778;-60
2021/12/02 07:51:33;;;;;;;3.80;3.40;;;4.00;99.90;;;;;;5053336;28;20424;-58
2021/12/02 07:54:02;;;;;;;2.70;2.30;;;4.00;99.90;;;;;;5052956;28;20239;-58
2021/12/02 07:56:33;;;;;;;4.88;2.03;;;3.60;99.90;;;;;;5053740;28;20243;-61
2021/12/02 07:59:05;;;;;;;3.90;1.98;;;3.50;99.90;;;;;;5052767;28;20224;-58
2021/12/02 08:01:35;;;;;;;3.78;1.10;;;3.20;99.90;;;;;;5053793;28;20536;-58
2021/12/02 08:04:04;;;;;;;2.72;2.00;;;3.30;99.90;;;;;;5052979;28;20220;-58
2021/12/02 08:06:34;;;;;;;1.38;1.20;;;2.90;99.90;;;;;;5052991;28;20196;-57
2021/12/02 08:09:03;;;;;;;2.00;1.67;;;3.20;99.90;;;;;;5053178;28;20274;-59
2021/12/02 08:11:32;;;;;;;4.60;2.25;;;3.20;99.90;;;;;;5053501;28;20200;-59
2021/12/02 08:14:01;;;;;;;2.45;1.65;;;3.30;99.90;;;;;;5037501;28;20220;-58
2021/12/02 08:16:30;;;;;;;2.65;1.55;;;3.40;99.90;;;;;;5073919;28;20203;-57
2021/12/02 08:19:00;;;;;;;4.45;2.38;;;3.50;99.90;;;;;;5072644;28;20239;-59
2021/12/02 08:21:29;;;;;;;9.98;2.83;;;3.40;99.90;;;;;;5073455;28;20187;-57
2021/12/02 08:23:58;;;;;;;3.97;2.65;;;3.50;99.90;;;;;;5071231;28;20235;-58
2021/12/02 08:26:27;;;;;;;3.30;2.80;;;3.50;99.90;;;;;;5073665;28;20588;-58
2021/12/02 08:28:55;;;;;;;5.45;3.70;;;3.60;99.90;;;;;;5071348;28;20226;-60
2021/12/02 08:31:23;;;;;;;6.82;3.67;;;3.50;99.90;;;;;;5073310;28;20585;-59
2021/12/02 08:33:53;;;;;;;6.28;3.97;;;3.60;99.90;;;;;;5071854;28;20261;-58
2021/12/02 08:36:24;;;;;;;3.78;3.35;;;3.50;99.90;;;;;;5059693;28;20289;-58
2021/12/02 08:38:52;;;;;;;6.53;3.42;;;3.50;99.90;;;;;;5052066;28;20259;-59
2021/12/02 08:41:22;;;;;;;5.68;3.45;;;3.50;99.90;;;;;;5053280;28;20193;-58
2021/12/02 08:43:50;;;;;;;5.20;3.70;;;3.60;99.90;;;;;;5051779;28;20219;-58
2021/12/02 08:46:21;;;;;;;6.88;4.13;;;3.70;99.90;;;;;;5052964;28;20192;-58
2021/12/02 08:48:53;;;;;;;5.63;4.47;;;3.80;99.90;;;;;;5052425;28;20212;-59
2021/12/02 08:51:24;;;;;;;6.88;4.30;;;3.70;99.90;;;;;;5052737;28;20650;-58
2021/12/02 08:53:52;;;;;;;5.43;3.50;;;3.60;99.90;;;;;;5052243;28;20336;-58
2021/12/02 08:56:21;;;;;;;5.65;4.72;;;3.60;99.90;;;;;;5052427;28;20188;-59
2021/12/02 08:58:51;;;;;;;7.50;5.32;;;3.70;99.90;;;;;;5050612;28;20220;-59
2021/12/02 09:01:20;;;;;;;6.95;4.93;;;3.60;99.90;;;;;;5052441;28;20654;-58
2021/12/02 09:03:51;;;;;;;7.65;5.55;;;3.60;99.90;;;;;;5050849;28;20223;-58
2021/12/02 09:06:22;;;;;;;8.50;5.70;;;3.60;99.90;;;;;;5051712;28;20195;-59
2021/12/02 09:08:53;;;;;;;8.07;6.75;;;3.80;99.90;;;;;;5052195;28;20224;-60
2021/12/02 09:11:23;;;;;;;9.25;7.28;;;3.80;99.90;;;;;;5052284;28;20662;-58
2021/12/02 09:13:56;;;;;;;7.88;6.75;;;3.90;99.90;;;;;;5051593;28;20698;-58
2021/12/02 09:16:25;;;;;;;10.60;6.68;;;3.90;99.90;;;;;;5052002;28;20659;-58
2021/12/02 09:18:54;;;;;;;11.98;7.03;;;4.00;99.90;;;;;;5051627;28;20590;-59
2021/12/02 09:21:22;;;;;;;14.48;7.20;;;4.00;99.90;;;;;;5052491;28;20204;-59
2021/12/02 09:23:51;;;;;;;8.02;7.15;;;4.10;99.90;;;;;;5033919;28;20393;-58
2021/12/02 09:26:20;;;;;;;5.63;4.00;;;4.20;99.90;;;;;;5052039;28;20231;-58
2021/12/02 09:28:54;;;;;;;7.18;5.30;;;3.80;99.90;;;;;;5050088;28;20228;-59
2021/12/02 09:31:25;;;;;;;6.63;5.78;;;3.80;99.90;;;;;;5052286;28;20239;-58
2021/12/02 09:33:53;;;;;;;5.65;2.63;;;3.70;99.90;;;;;;5068738;28;20228;-58
2021/12/02 09:36:22;;;;;;;4.00;3.05;;;3.80;99.90;;;;;;5070179;28;20265;-57
2021/12/02 09:38:50;;;;;;;3.00;2.40;;;3.70;99.90;;;;;;5051123;28;20224;-59
2021/12/02 09:41:18;;;;;;;3.15;2.15;;;3.70;99.90;;;;;;5070147;28;20661;-59
2021/12/02 09:43:46;;;;;;;2.30;1.98;;;3.60;99.90;;;;;;5058650;28;20231;-58
2021/12/02 09:46:16;;;;;;;1.42;1.30;;;3.70;99.90;;;;;;5051774;28;20659;-58
2021/12/02 09:48:45;;;;;;;2.05;0.68;;;3.40;99.90;;;;;;5061713;28;20226;-59
2021/12/02 09:51:18;;;;;;;3.00;0.98;;;3.40;99.90;;;;;;5063315;28;20188;-58
2021/12/02 09:54:09;;;;;;;2.38;0.70;;;3.40;99.90;;;;;;5052379;28;20235;-59
2021/12/02 09:56:40;;;;;;;2.50;0.90;;;3.40;99.90;;;;;;5071819;28;20191;-58
2021/12/02 09:59:11;;;;;;;1.48;1.10;;;3.20;99.90;;;;;;5055396;28;20236;-60
2021/12/02 10:01:44;;;;;;;3.28;1.40;;;3.30;99.90;;;;;;5050623;28;20204;-58
2021/12/02 10:04:15;;;;;;;2.45;1.45;;;3.40;99.90;;;;;;5059282;28;20624;-58
2021/12/02 10:06:45;;;;;;;4.10;1.95;;;3.30;99.90;;;;;;5067806;28;20658;-58
2021/12/02 10:09:19;;;;;;;5.95;2.10;;;3.40;99.90;;;;;;5069801;28;20281;-59
2021/12/02 10:11:52;;;;;;;2.97;1.80;;;3.40;99.90;;;;;;5071804;28;20196;-58
2021/12/02 10:14:25;;;;;;;2.35;1.88;;;3.20;99.90;;;;;;5053663;28;20637;-58
2021/12/02 10:17:09;;;;;;;4.25;2.88;;;3.20;99.90;;;;;;5050446;28;20273;-58
2021/12/02 10:19:37;;;;;;;3.03;2.63;;;3.30;99.90;;;;;;5050208;28;20248;-60
2021/12/02 10:22:08;;;;;;;3.28;2.30;;;3.40;99.90;;;;;;5050810;28;20246;-58
2021/12/02 10:24:42;;;;;;;5.55;2.63;;;3.60;99.90;;;;;;5050011;28;20215;-58
2021/12/02 10:27:13;;;;;;;5.18;2.90;;;3.60;99.90;;;;;;5049434;28;20231;-58
2021/12/02 10:29:47;;;;;;;4.03;2.72;;;3.70;99.90;;;;;;5051675;28;20267;-59
2021/12/02 10:32:21;;;;;;;8.90;2.95;;;3.60;99.90;;;;;;5050721;28;20245;-58
2021/12/02 10:34:52;;;;;;;4.90;2.83;;;3.70;99.90;;;;;;5058869;28;20527;-57
2021/12/02 10:37:22;;;;;;;6.65;4.15;;;3.70;99.90;;;;;;5062056;28;20215;-58
2021/12/02 10:39:58;;;;;;;5.18;3.60;;;3.80;99.90;;;;;;5071067;28;20737;-59
2021/12/02 10:42:29;;;;;;;3.42;2.35;;;3.70;99.90;;;;;;5068994;28;20243;-58
2021/12/02 10:45:01;;;;;;;7.38;4.28;;;3.60;99.90;;;;;;5070426;28;20199;-58
2021/12/02 10:47:32;;;;;;;4.90;3.25;;;3.70;99.90;;;;;;5070407;28;20634;-58
2021/12/02 10:50:06;;;;;;;5.20;4.22;;;3.80;99.90;;;;;;5070223;28;20238;-59
2021/12/02 10:52:36;;;;;;;5.40;4.20;;;3.80;99.90;;;;;;5068798;28;20703;-59
2021/12/02 10:55:08;;;;;;;6.57;4.53;;;3.80;99.90;;;;;;5071105;28;20196;-57
2021/12/02 10:57:39;;;;;;;4.50;4.13;;;3.90;99.90;;;;;;5067272;28;20770;-58
2021/12/02 11:00:09;;;;;;;5.18;4.00;;;4.00;99.90;;;;;;5051230;28;20609;-59
2021/12/02 11:02:43;;;;;;;5.25;4.28;;;4.10;99.90;;;;;;5050541;28;20208;-59
2021/12/02 11:05:19;;;;;;;5.20;4.10;;;4.00;99.90;;;;;;5049658;28;20219;-58
2021/12/02 11:07:54;;;;;;;8.10;4.63;;;3.90;99.90;;;;;;5050498;28;20226;-59
2021/12/02 11:10:22;;;;;;;5.85;4.60;;;3.90;99.90;;;;;;5050934;28;20194;-59
2021/12/02 11:12:53;;;;;;;4.82;4.30;;;4.00;99.90;;;;;;5050817;28;20212;-58
2021/12/02 11:15:23;;;;;;;5.15;4.28;;;4.00;99.90;;;;;;5051065;28;20200;-58
2021/12/02 11:17:54;;;;;;;5.25;4.35;;;4.20;99.90;;;;;;5049083;28;20220;-58
2021/12/02 11:20:25;;;;;;;4.32;3.92;;;4.00;99.90;;;;;;5050691;28;20201;-59
2021/12/02 11:22:56;;;;;;;11.93;5.75;;;4.00;99.90;;;;;;5050601;28;20218;-59
2021/12/02 11:25:25;;;;;;;9.77;4.65;;;4.20;99.90;;;;;;5050590;28;20188;-59
2021/12/02 11:27:54;;;;;;;10.55;5.30;;;4.40;99.90;;;;;;5055790;28;20216;-59
2021/12/02 11:30:24;;;;;;;7.65;4.03;;;4.20;99.90;;;;;;5072480;28;20593;-59
2021/12/02 11:32:57;;;;;;;6.47;5.03;;;4.40;99.90;;;;;;5073729;28;20220;-60
2021/12/02 11:35:32;;;;;;;8.82;5.05;;;4.60;99.90;;;;;;5073903;28;20191;-59
2021/12/02 11:38:05;;;;;;;6.63;5.05;;;4.60;99.90;;;;;;5058589;28;20710;-58
2021/12/02 11:40:36;;;;;;;7.03;4.78;;;4.50;99.90;;;;;;5053906;28;20219;-59
2021/12/02 11:43:05;;;;;;;4.18;3.70;;;4.50;99.90;;;;;;5059156;28;20218;-59
2021/12/02 11:45:42;;;;;;;4.57;3.60;;;4.50;99.90;;;;;;5073841;28;20241;-58
2021/12/02 11:48:12;;;;;;;7.03;4.97;;;4.60;99.90;;;;;;5073685;28;20314;-60
2021/12/02 11:50:42;;;;;;;8.27;4.93;;;4.50;99.90;;;;;;5073835;28;20192;-59
2021/12/02 11:53:10;;;;;;;5.90;4.10;;;4.40;99.90;;;;;;5055911;28;20243;-58
2021/12/02 11:55:42;;;;;;;5.43;4.25;;;4.50;99.90;;;;;;5065356;28;20200;-58
2021/12/02 11:58:11;;;;;;;8.65;5.10;;;4.50;99.90;;;;;;5064854;28;20224;-60
2021/12/02 12:00:39;;;;;;;8.40;3.90;;;4.40;99.90;;;;;;5066184;28;20200;-59
2021/12/02 12:03:10;;;;;;;3.97;3.13;;;4.60;99.90;;;;;;5070903;28;20277;-59
2021/12/02 12:05:53;;;;;;;6.30;3.20;;;4.60;99.90;;;;;;5073435;28;20214;-59
2021/12/02 12:08:33;;;;;;;4.88;3.40;;;4.60;99.90;;;;;;5066806;28;20596;-59
2021/12/02 12:11:20;;;;;;;6.20;2.65;;;4.60;99.90;;;;;;5073957;28;20214;-60
2021/12/02 12:13:51;;;;;;;3.42;2.55;;;4.50;99.90;;;;;;5058851;28;20220;-58
2021/12/02 12:16:25;;;;;;;3.70;2.83;;;4.40;99.90;;;;;;5052183;28;20195;-58
2021/12/02 12:18:55;;;;;;;3.45;3.13;;;4.40;99.90;;;;;;5052775;28;20243;-59
2021/12/02 12:21:38;;;;;;;3.92;2.92;;;4.20;99.90;;;;;;5054298;28;20227;-59
2021/12/02 12:24:07;;;;;;;3.83;3.45;;;4.10;99.90;;;;;;5072611;28;20222;-58
2021/12/02 12:26:38;;;;;;;4.25;3.30;;;4.00;99.90;;;;;;5073179;28;20188;-59
2021/12/02 12:29:31;;;;;;;5.07;3.42;;;4.00;99.90;;;;;;5061460;28;20250;-59
2021/12/02 12:32:39;;;;;;;4.68;3.60;;;4.10;99.90;;;;;;5052728;28;20197;-60
2021/12/02 12:35:14;;;;;;;3.40;3.10;;;4.00;99.90;;;;;;5051875;28;20189;-58
2021/12/02 12:37:55;;;;;;;5.18;3.65;;;4.00;99.90;;;;;;5052165;28;20220;-58
2021/12/02 12:40:27;;;;;;;3.50;3.20;;;4.00;99.90;;;;;;5051782;28;20235;-60
2021/12/02 12:43:33;;;;;;;3.08;2.05;;;4.00;99.90;;;;;;5056671;28;20295;-58
2021/12/02 12:46:10;;;;;;;2.60;2.40;;;4.20;99.90;;;;;;5072575;28;20200;-58
2021/12/02 12:48:39;;;;;;;4.25;3.00;;;4.20;99.90;;;;;;5072445;28;20246;-59
2021/12/02 12:51:20;;;;;;;6.95;3.75;;;4.10;99.90;;;;;;5072874;28;20184;-60
2021/12/02 12:53:52;;;;;;;5.55;3.08;;;4.00;99.90;;;;;;5056971;28;20212;-58
2021/12/02 12:56:28;;;;;;;5.22;3.17;;;4.10;99.90;;;;;;5052776;28;20231;-59
2021/12/02 12:59:17;;;;;;;3.78;3.47;;;4.10;99.90;;;;;;5052412;28;20219;-59
2021/12/02 13:02:00;;;;;;;3.70;3.30;;;4.00;99.90;;;;;;5061837;28;20208;-60
2021/12/02 13:04:33;;;;;;;4.10;3.72;;;4.00;99.90;;;;;;5072467;28;20220;-59
2021/12/02 13:07:11;;;;;;;4.50;2.88;;;3.90;99.90;;;;;;5054757;28;20203;-58
2021/12/02 13:09:52;;;;;;;5.88;4.50;;;3.90;99.90;;;;;;5052726;28;20234;-59
2021/12/02 13:12:26;;;;;;;3.58;3.28;;;3.80;99.90;;;;;;5051618;28;20228;-59
2021/12/02 13:14:55;;;;;;;4.68;3.80;;;3.80;99.90;;;;;;5052481;28;20280;-58
2021/12/02 13:17:46;;;;;;;5.25;3.55;;;3.80;99.90;;;;;;5050680;28;20634;-58
2021/12/02 13:20:27;;;;;;;3.42;3.00;;;3.70;99.90;;;;;;5048918;28;20224;-60